Time;durP1;ratioP1;P1;durP2;ratioP2;P2;SDS_P1;SDS_P2;PMS_P1;PMS_P2;Temp;Humidity;BMP_temperature;BMP_pressure;BME280_temperature;BME280_humidity;BME280_pressure;Samples;Min_cycle;Max_cycle;Signal;HPM_P1;HPM_P2
2023/03/03 00:00:06;;;;;;;38.35;26.00;;;;;;;3.07;87.47;102301.88;5053246;28;20052;-39
2023/03/03 00:02:31;;;;;;;36.08;24.83;;;;;;;3.08;88.10;102311.75;5053013;28;20036;-39
2023/03/03 00:04:56;;;;;;;35.15;24.65;;;;;;;3.02;88.06;102300.88;5053260;28;20397;-39
2023/03/03 00:07:22;;;;;;;36.13;25.63;;;;;;;3.03;87.47;102303.38;5053069;28;20029;-39
2023/03/03 00:09:48;;;;;;;36.80;25.65;;;;;;;2.95;87.76;102309.94;5035094;28;20044;-39
2023/03/03 00:12:27;;;;;;;35.58;25.60;;;;;;;2.84;88.22;102313.34;5052943;28;20040;-39
2023/03/03 00:14:53;;;;;;;38.15;26.02;;;;;;;2.91;87.90;102318.78;5035208;28;20029;-39
2023/03/03 00:17:23;;;;;;;38.30;27.23;;;;;;;2.85;88.62;102319.69;5052984;28;20020;-39
2023/03/03 00:19:49;;;;;;;39.17;27.23;;;;;;;2.92;88.19;102323.22;5053039;28;20029;-38
2023/03/03 00:22:23;;;;;;;38.33;25.08;;;;;;;2.92;89.04;102329.53;5052732;28;20154;-38
2023/03/03 00:24:48;;;;;;;35.78;26.27;;;;;;;2.91;88.77;102327.00;5052546;28;20393;-38
2023/03/03 00:27:34;;;;;;;37.35;25.00;;;;;;;2.89;88.86;102316.28;5052564;28;20029;-38
2023/03/03 00:30:00;;;;;;;36.70;24.75;;;;;;;2.92;88.98;102326.78;5052821;28;20032;-38
2023/03/03 00:32:46;;;;;;;36.47;24.92;;;;;;;2.95;88.89;102320.88;5052620;28;20362;-38
2023/03/03 00:35:23;;;;;;;38.15;24.80;;;;;;;3.00;88.64;102327.59;5052855;28;20036;-39
2023/03/03 00:37:53;;;;;;;34.67;24.48;;;;;;;2.98;89.68;102327.78;5052538;28;20033;-39
2023/03/03 00:40:32;;;;;;;35.70;23.25;;;;;;;3.04;89.92;102323.34;5052431;28;20488;-40
2023/03/03 00:42:59;;;;;;;32.72;23.20;;;;;;;3.09;88.66;102326.28;5052492;28;20056;-39
2023/03/03 00:45:29;;;;;;;35.63;23.50;;;;;;;3.13;89.03;102330.22;5052359;28;20040;-39
2023/03/03 00:47:56;;;;;;;36.10;23.80;;;;;;;3.17;88.85;102322.44;5048310;28;20033;-39
2023/03/03 00:50:26;;;;;;;36.50;24.15;;;;;;;3.20;88.07;102330.19;5052249;28;20091;-39
2023/03/03 00:53:18;;;;;;;36.00;23.33;;;;;;;3.25;87.89;102330.41;5052250;28;20099;-39
2023/03/03 00:55:45;;;;;;;35.50;23.50;;;;;;;3.23;87.77;102329.78;5052352;28;20037;-38
2023/03/03 00:58:11;;;;;;;34.28;22.98;;;;;;;3.25;88.07;102328.47;5052418;28;20032;-39
2023/03/03 01:00:38;;;;;;;31.95;22.08;;;;;;;3.25;87.19;102333.13;5052317;28;20057;-39
2023/03/03 01:03:07;;;;;;;34.92;23.63;;;;;;;3.19;87.87;102337.59;5052243;28;20083;-40
2023/03/03 01:05:32;;;;;;;31.40;21.98;;;;;;;3.11;86.57;102322.25;5052159;28;20135;-38
2023/03/03 01:07:58;;;;;;;33.72;22.55;;;;;;;3.22;86.89;102333.56;5052145;28;20536;-40
2023/03/03 01:10:27;;;;;;;33.13;22.75;;;;;;;3.21;85.72;102340.91;5052168;28;20025;-38
2023/03/03 01:12:53;;;;;;;32.78;22.33;;;;;;;3.21;86.52;102345.56;5051818;28;20385;-38
2023/03/03 01:15:18;;;;;;;33.13;22.70;;;;;;;3.18;86.00;102340.50;5052110;28;20102;-39
2023/03/03 01:17:44;;;;;;;34.80;22.90;;;;;;;3.16;86.30;102340.75;5052082;28;20370;-39
2023/03/03 01:20:12;;;;;;;35.28;23.83;;;;;;;3.08;85.63;102343.75;5051980;28;20440;-38
2023/03/03 01:22:37;;;;;;;32.63;22.98;;;;;;;3.03;85.18;102357.22;5051977;28;20025;-38
2023/03/03 01:25:03;;;;;;;33.55;22.63;;;;;;;2.99;86.36;102350.53;5034167;28;20370;-39
2023/03/03 01:27:29;;;;;;;34.65;22.35;;;;;;;2.95;86.02;102347.38;5051802;28;20023;-38
2023/03/03 01:29:56;;;;;;;33.42;22.20;;;;;;;2.91;86.35;102354.34;5051985;28;20485;-37
2023/03/03 01:32:23;;;;;;;32.85;22.60;;;;;;;2.91;86.09;102359.78;5051913;28;20033;-38
2023/03/03 01:34:48;;;;;;;37.38;22.33;;;;;;;2.88;86.20;102355.63;5034246;28;20071;-38
2023/03/03 01:37:13;;;;;;;34.35;22.98;;;;;;;2.87;86.12;102364.03;5052030;28;20372;-38
2023/03/03 01:39:39;;;;;;;34.60;22.52;;;;;;;2.84;85.88;102351.63;5033983;28;20036;-38
2023/03/03 01:42:04;;;;;;;33.90;22.20;;;;;;;2.85;86.53;102347.00;5034152;28;20044;-39
2023/03/03 01:44:30;;;;;;;33.47;22.90;;;;;;;2.85;86.00;102357.94;5051915;28;20033;-38
2023/03/03 01:47:08;;;;;;;35.63;23.73;;;;;;;2.87;86.64;102359.41;5048309;28;20597;-39
2023/03/03 01:49:41;;;;;;;34.80;22.77;;;;;;;2.78;86.08;102352.50;5051772;28;20108;-38
2023/03/03 01:52:21;;;;;;;34.85;22.65;;;;;;;2.81;85.68;102366.56;5051806;28;20507;-38
2023/03/03 01:54:52;;;;;;;33.33;23.02;;;;;;;2.71;85.36;102368.09;5033699;28;20392;-38
2023/03/03 01:57:25;;;;;;;34.78;22.48;;;;;;;2.68;87.11;102366.63;5051894;28;20029;-38
2023/03/03 01:59:52;;;;;;;33.03;22.15;;;;;;;2.64;85.43;102352.56;5051657;28;20056;-39
2023/03/03 02:02:19;;;;;;;35.13;23.52;;;;;;;2.54;85.88;102357.63;5053387;28;20044;-39
2023/03/03 02:04:44;;;;;;;33.45;22.75;;;;;;;2.54;87.18;102362.25;5055425;28;20029;-39
2023/03/03 02:07:11;;;;;;;35.92;23.73;;;;;;;2.50;87.23;102362.66;5055408;28;20061;-39
2023/03/03 02:09:51;;;;;;;33.00;22.83;;;;;;;2.52;87.19;102356.16;5055295;28;20488;-38
2023/03/03 02:12:19;;;;;;;35.90;24.02;;;;;;;2.61;87.99;102354.88;5055370;28;20036;-39
2023/03/03 02:14:45;;;;;;;34.75;23.33;;;;;;;2.58;86.71;102367.06;5055172;28;20060;-38
2023/03/03 02:17:11;;;;;;;34.58;22.42;;;;;;;2.57;86.35;102368.13;5055178;28;20079;-38
2023/03/03 02:19:45;;;;;;;35.67;22.60;;;;;;;2.65;87.16;102364.31;5055082;28;20546;-38
2023/03/03 02:22:14;;;;;;;35.65;22.55;;;;;;;2.69;86.94;102362.00;5055182;28;20055;-37
2023/03/03 02:24:55;;;;;;;35.47;22.80;;;;;;;2.61;86.09;102363.91;5054986;28;20025;-38
2023/03/03 02:27:20;;;;;;;35.58;22.90;;;;;;;2.59;86.67;102367.94;5054909;28;20043;-37
2023/03/03 02:29:46;;;;;;;33.72;22.38;;;;;;;2.59;86.73;102374.22;5054794;28;20032;-38
2023/03/03 02:32:11;;;;;;;33.67;22.53;;;;;;;2.44;86.87;102344.41;5054860;28;20025;-38
2023/03/03 02:35:23;;;;;;;36.10;23.70;;;;;;;2.55;86.56;102364.75;5036158;28;20100;-37
2023/03/03 02:37:49;;;;;;;34.50;22.45;;;;;;;2.53;87.63;102364.16;5054447;28;20025;-38
2023/03/03 02:40:16;;;;;;;32.90;21.25;;;;;;;2.59;88.01;102357.81;5054993;28;20025;-39
2023/03/03 02:42:44;;;;;;;34.70;21.50;;;;;;;2.72;88.20;102365.13;5054700;28;20087;-39
2023/03/03 02:45:09;;;;;;;33.33;21.50;;;;;;;2.77;87.47;102348.94;5054680;28;20477;-38
2023/03/03 02:47:35;;;;;;;34.53;21.67;;;;;;;2.74;85.90;102354.81;5051751;28;20072;-38
2023/03/03 02:50:00;;;;;;;33.20;20.98;;;;;;;2.68;86.51;102352.13;5054729;28;20029;-38
2023/03/03 02:52:25;;;;;;;31.55;21.10;;;;;;;2.55;86.91;102355.72;5054506;28;20388;-38
2023/03/03 02:54:50;;;;;;;31.83;20.90;;;;;;;2.55;87.69;102353.00;5054524;28;20033;-38
2023/03/03 02:57:16;;;;;;;30.92;21.15;;;;;;;2.54;87.66;102352.19;5054502;28;20422;-38
2023/03/03 02:59:41;;;;;;;32.33;20.92;;;;;;;2.54;87.59;102356.78;5054033;28;20025;-40
2023/03/03 03:02:07;;;;;;;33.17;20.50;;;;;;;2.59;87.86;102366.03;5054489;28;20057;-38
2023/03/03 03:04:33;;;;;;;32.20;20.80;;;;;;;2.59;87.33;102362.47;5054404;28;20116;-39
2023/03/03 03:06:59;;;;;;;32.53;21.70;;;;;;;2.59;87.78;102357.00;5054259;28;20123;-38
2023/03/03 03:09:24;;;;;;;32.28;21.48;;;;;;;2.63;87.31;102360.97;5054521;28;20170;-38
2023/03/03 03:11:50;;;;;;;30.95;20.13;;;;;;;2.65;86.58;102362.41;5054330;28;20017;-39
2023/03/03 03:14:16;;;;;;;32.05;20.50;;;;;;;2.62;87.08;102359.28;5054034;28;20025;-39
2023/03/03 03:16:41;;;;;;;33.47;21.27;;;;;;;2.57;87.98;102357.19;5054033;28;20031;-39
2023/03/03 03:19:07;;;;;;;32.47;21.63;;;;;;;2.60;87.38;102378.63;5053928;28;20056;-39
2023/03/03 03:21:33;;;;;;;33.00;21.08;;;;;;;2.55;87.62;102378.41;5054001;28;20021;-38
2023/03/03 03:23:58;;;;;;;32.58;21.42;;;;;;;2.56;88.44;102371.91;5053863;28;20025;-39
2023/03/03 03:26:24;;;;;;;31.88;21.02;;;;;;;2.58;87.58;102377.19;5054009;28;20033;-38
2023/03/03 03:28:50;;;;;;;33.15;20.92;;;;;;;2.58;88.09;102374.44;5053834;28;20057;-38
2023/03/03 03:31:16;;;;;;;31.42;21.30;;;;;;;2.60;88.55;102381.38;5053866;28;20037;-38
2023/03/03 03:33:42;;;;;;;31.75;19.45;;;;;;;2.66;88.23;102376.94;5053794;28;20031;-38
2023/03/03 03:36:08;;;;;;;32.80;22.38;;;;;;;2.60;85.85;102375.03;5053538;28;20100;-38
2023/03/03 03:38:35;;;;;;;30.70;20.23;;;;;;;2.58;87.57;102372.53;5053587;28;20108;-38
2023/03/03 03:41:01;;;;;;;30.27;19.58;;;;;;;2.52;86.79;102373.41;5053573;28;20519;-38
2023/03/03 03:43:27;;;;;;;32.00;20.85;;;;;;;2.46;86.45;102374.25;5053464;28;20033;-38
2023/03/03 03:45:52;;;;;;;31.40;20.35;;;;;;;2.41;87.02;102363.94;5053404;28;20040;-38
2023/03/03 03:48:18;;;;;;;32.08;20.05;;;;;;;2.43;86.55;102364.59;5032535;28;20039;-40
2023/03/03 03:50:46;;;;;;;30.50;19.73;;;;;;;2.45;85.89;102370.69;5073264;28;20059;-39
2023/03/03 03:53:11;;;;;;;32.05;20.83;;;;;;;2.37;85.73;102370.91;5073522;28;20069;-38
2023/03/03 03:55:36;;;;;;;31.02;19.55;;;;;;;2.28;86.59;102386.66;5073295;28;20017;-38
2023/03/03 03:58:02;;;;;;;32.17;20.27;;;;;;;2.31;87.64;102383.53;5073259;28;20035;-39
2023/03/03 04:00:27;;;;;;;31.40;20.50;;;;;;;2.26;87.00;102383.34;5073201;28;20132;-39
2023/03/03 04:02:52;;;;;;;31.10;20.10;;;;;;;2.29;88.58;102379.34;5073285;28;20074;-40
2023/03/03 04:05:18;;;;;;;32.05;20.80;;;;;;;2.27;87.06;102385.00;5073155;28;20031;-38
2023/03/03 04:07:43;;;;;;;31.23;19.83;;;;;;;2.33;87.89;102386.03;5073255;28;20078;-39
2023/03/03 04:10:09;;;;;;;31.73;20.23;;;;;;;2.32;87.72;102382.47;5072942;28;20036;-38
2023/03/03 04:12:38;;;;;;;31.10;20.15;;;;;;;2.31;88.36;102386.25;5072857;28;20036;-38
2023/03/03 04:15:05;;;;;;;31.67;19.85;;;;;;;2.37;88.92;102380.97;5072901;28;20020;-38
2023/03/03 04:17:30;;;;;;;29.05;19.35;;;;;;;2.40;86.68;102386.03;5072890;28;20032;-38
2023/03/03 04:19:56;;;;;;;30.05;20.17;;;;;;;2.39;87.24;102384.34;5072639;28;20056;-38
2023/03/03 04:22:21;;;;;;;31.30;20.48;;;;;;;2.37;87.37;102387.31;5072821;28;20021;-38
2023/03/03 04:24:47;;;;;;;30.98;19.90;;;;;;;2.38;87.65;102383.53;5054403;28;20461;-37
2023/03/03 04:27:14;;;;;;;30.60;20.05;;;;;;;2.39;86.35;102387.06;5072438;28;20032;-38
2023/03/03 04:29:40;;;;;;;31.33;20.20;;;;;;;2.32;87.06;102387.94;5072583;28;20438;-38
2023/03/03 04:32:05;;;;;;;31.25;19.83;;;;;;;2.40;88.30;102381.41;5072756;28;20032;-38
2023/03/03 04:34:31;;;;;;;33.53;20.10;;;;;;;2.43;87.70;102396.53;5072504;28;20064;-38
2023/03/03 04:36:56;;;;;;;30.52;19.58;;;;;;;2.42;86.60;102392.13;5072659;28;20476;-38
2023/03/03 04:39:21;;;;;;;31.00;20.13;;;;;;;2.35;87.52;102386.66;5054510;28;20074;-38
2023/03/03 04:41:46;;;;;;;31.92;19.00;;;;;;;2.27;87.45;102386.91;5072402;28;20098;-39
2023/03/03 04:44:12;;;;;;;32.17;19.92;;;;;;;2.32;88.14;102387.09;5072445;28;20028;-38
2023/03/03 04:46:37;;;;;;;31.17;19.73;;;;;;;2.29;87.48;102391.09;5069440;28;20445;-38
2023/03/03 04:49:03;;;;;;;30.73;19.10;;;;;;;2.31;88.19;102390.91;5071354;28;20480;-39
2023/03/03 04:51:28;;;;;;;31.38;19.42;;;;;;;2.29;88.11;102393.81;5072524;28;20032;-39
2023/03/03 04:53:54;;;;;;;31.65;19.55;;;;;;;2.28;88.25;102394.88;5071948;28;20098;-39
2023/03/03 04:56:19;;;;;;;32.50;20.00;;;;;;;2.22;88.31;102384.81;5072279;28;20024;-39
2023/03/03 04:58:44;;;;;;;30.75;19.95;;;;;;;2.30;88.71;102400.97;5072414;28;20097;-39
2023/03/03 05:01:13;;;;;;;33.40;21.15;;;;;;;2.32;87.85;102384.34;5072578;28;20464;-39
2023/03/03 05:03:39;;;;;;;31.95;20.65;;;;;;;2.34;88.03;102394.03;5072232;28;20029;-39
2023/03/03 05:06:04;;;;;;;31.27;20.15;;;;;;;2.38;88.32;102394.44;5072071;28;20032;-38
2023/03/03 05:08:30;;;;;;;32.45;20.52;;;;;;;2.40;87.87;102384.16;5072130;28;20027;-39
2023/03/03 05:10:55;;;;;;;32.67;20.10;;;;;;;2.38;87.04;102399.06;5072071;28;20429;-38
2023/03/03 05:13:21;;;;;;;33.75;20.88;;;;;;;2.36;87.19;102399.28;5069865;28;20029;-39
2023/03/03 05:15:51;;;;;;;32.25;20.55;;;;;;;2.31;87.75;102386.25;5052126;28;20076;-39
2023/03/03 05:18:20;;;;;;;32.47;19.80;;;;;;;2.31;88.19;102390.91;5051988;28;20029;-39
2023/03/03 05:20:46;;;;;;;29.30;19.15;;;;;;;2.34;88.06;102401.38;5051941;28;20029;-39
2023/03/03 05:23:12;;;;;;;31.60;19.90;;;;;;;2.38;87.62;102404.50;5052117;28;20412;-39
2023/03/03 05:25:40;;;;;;;30.30;19.25;;;;;;;2.47;88.73;102397.78;5034095;28;20024;-39
2023/03/03 05:28:05;;;;;;;31.75;19.85;;;;;;;2.58;88.66;102399.84;5051915;28;20083;-38
2023/03/03 05:30:30;;;;;;;33.17;19.65;;;;;;;2.57;87.00;102395.44;5052084;28;20420;-39
2023/03/03 05:32:58;;;;;;;31.88;19.50;;;;;;;2.64;87.63;102409.09;5051868;28;20108;-39
2023/03/03 05:35:23;;;;;;;30.52;19.90;;;;;;;2.57;87.09;102403.63;5051883;28;20032;-39
2023/03/03 05:37:48;;;;;;;30.25;18.65;;;;;;;2.52;86.63;102405.34;5054574;28;20128;-39
2023/03/03 05:40:14;;;;;;;31.05;19.58;;;;;;;2.49;87.82;102398.41;5055896;28;20038;-39
2023/03/03 05:42:39;;;;;;;32.00;20.48;;;;;;;2.48;87.71;102408.50;5034433;28;20136;-38
2023/03/03 05:45:05;;;;;;;29.95;19.60;;;;;;;2.45;87.35;102400.72;5055817;28;20040;-39
2023/03/03 05:47:31;;;;;;;31.27;19.92;;;;;;;2.47;87.88;102403.25;5055729;28;20500;-39
2023/03/03 05:49:56;;;;;;;32.55;20.17;;;;;;;2.43;87.74;102397.38;5055757;28;20021;-39
2023/03/03 05:52:23;;;;;;;32.42;19.73;;;;;;;2.48;87.65;102402.19;5055624;28;20032;-38
2023/03/03 05:54:48;;;;;;;32.53;20.55;;;;;;;2.51;87.43;102399.03;5055739;28;20029;-38
2023/03/03 05:57:14;;;;;;;33.90;20.65;;;;;;;2.56;87.76;102401.97;5055558;28;20025;-38
2023/03/03 05:59:39;;;;;;;31.10;20.65;;;;;;;2.57;87.23;102409.09;5055212;28;20040;-38
2023/03/03 06:02:05;;;;;;;31.42;19.65;;;;;;;2.53;86.96;102405.13;5055494;28;20036;-38
2023/03/03 06:04:30;;;;;;;33.88;20.05;;;;;;;2.55;87.98;102413.94;5055469;28;20048;-38
2023/03/03 06:06:55;;;;;;;34.30;19.63;;;;;;;2.56;87.95;102407.41;5055438;28;20033;-39
2023/03/03 06:09:21;;;;;;;32.15;20.25;;;;;;;2.56;87.42;102406.59;5037342;28;20029;-38
2023/03/03 06:11:46;;;;;;;33.08;19.33;;;;;;;2.46;87.50;102404.28;5055251;28;20029;-38
2023/03/03 06:14:11;;;;;;;32.40;20.35;;;;;;;2.53;87.31;102417.94;5055108;28;20032;-39
2023/03/03 06:16:37;;;;;;;35.45;20.52;;;;;;;2.58;88.56;102423.63;5055139;28;20108;-38
2023/03/03 06:19:02;;;;;;;32.30;20.02;;;;;;;2.57;86.88;102417.31;5055424;28;20504;-37
2023/03/03 06:21:27;;;;;;;33.90;20.30;;;;;;;2.52;87.24;102435.38;5055071;28;20485;-38
2023/03/03 06:23:53;;;;;;;33.13;20.00;;;;;;;2.55;87.95;102424.88;5055140;28;20102;-40
2023/03/03 06:26:18;;;;;;;30.83;19.15;;;;;;;2.56;87.19;102431.19;5054990;28;20450;-38
2023/03/03 06:28:43;;;;;;;30.83;19.30;;;;;;;2.58;87.36;102438.09;5054854;28;20033;-38
2023/03/03 06:31:09;;;;;;;34.20;20.15;;;;;;;2.60;86.92;102440.63;5054896;28;20031;-38
2023/03/03 06:33:34;;;;;;;31.70;20.10;;;;;;;2.61;87.17;102442.31;5054906;28;20025;-38
2023/03/03 06:35:59;;;;;;;34.13;20.52;;;;;;;2.64;87.99;102437.28;5054859;28;20104;-38
2023/03/03 06:38:24;;;;;;;30.75;19.95;;;;;;;2.63;86.78;102445.66;5050812;28;20135;-38
2023/03/03 06:40:50;;;;;;;31.63;20.25;;;;;;;2.59;87.01;102448.00;5054827;28;20473;-38
2023/03/03 06:43:15;;;;;;;32.05;20.48;;;;;;;2.61;86.95;102455.97;5054724;28;20033;-38
2023/03/03 06:45:42;;;;;;;33.55;19.90;;;;;;;2.64;86.99;102461.00;5054723;28;20175;-38
2023/03/03 06:48:07;;;;;;;31.67;20.52;;;;;;;2.66;87.47;102458.91;5054797;28;20021;-38
2023/03/03 06:50:33;;;;;;;33.45;20.95;;;;;;;2.72;87.55;102468.97;5054655;28;20036;-38
2023/03/03 06:53:10;;;;;;;34.85;21.13;;;;;;;2.71;86.83;102464.56;5054566;28;20124;-38
2023/03/03 06:55:35;;;;;;;35.45;21.77;;;;;;;2.73;87.29;102470.66;5054501;28;20036;-38
2023/03/03 06:58:01;;;;;;;34.33;21.10;;;;;;;2.78;88.18;102476.34;5054383;28;20021;-38
2023/03/03 07:00:27;;;;;;;34.13;20.95;;;;;;;2.79;88.47;102474.44;5054422;28;20056;-38
2023/03/03 07:02:59;;;;;;;29.27;19.50;;;;;;;3.02;90.37;102479.44;5054517;28;20397;-38
2023/03/03 07:05:27;;;;;;;33.25;19.85;;;;;;;3.16;87.97;102465.72;5054455;28;20025;-39
2023/03/03 07:07:56;;;;;;;31.23;19.40;;;;;;;3.36;88.23;102471.91;5054266;28;20031;-39
2023/03/03 07:10:29;;;;;;;33.65;19.85;;;;;;;3.36;86.44;102469.19;5054077;28;20025;-39
2023/03/03 07:12:58;;;;;;;33.42;20.58;;;;;;;3.34;86.06;102475.94;5054111;28;20052;-38
2023/03/03 07:15:36;;;;;;;31.92;20.98;;;;;;;3.37;85.70;102464.56;5053644;28;20024;-39
2023/03/03 07:18:04;;;;;;;32.15;20.55;;;;;;;3.44;84.97;102470.84;5054107;28;20059;-39
2023/03/03 07:20:37;;;;;;;32.22;20.67;;;;;;;3.32;85.01;102451.53;5053962;28;20105;-39
2023/03/03 07:23:22;;;;;;;35.85;23.40;;;;;;;3.52;84.96;102484.28;5053855;28;20033;-39
2023/03/03 07:25:47;;;;;;;36.00;22.00;;;;;;;3.53;84.93;102471.44;5052901;28;20405;-39
2023/03/03 07:28:26;;;;;;;36.65;22.00;;;;;;;3.57;84.50;102484.47;5052861;28;20029;-39
2023/03/03 07:30:54;;;;;;;35.05;21.75;;;;;;;3.52;83.71;102480.72;5052853;28;20118;-38
2023/03/03 07:33:22;;;;;;;34.55;20.88;;;;;;;3.61;84.78;102498.56;5052604;28;20469;-39
2023/03/03 07:35:48;;;;;;;35.30;22.25;;;;;;;3.57;83.86;102492.69;5051742;28;20032;-38
2023/03/03 07:38:24;;;;;;;34.67;21.27;;;;;;;3.52;84.21;102488.91;5051894;28;20017;-39
2023/03/03 07:40:54;;;;;;;33.40;20.98;;;;;;;3.57;83.46;102483.63;5052573;28;20033;-38
2023/03/03 07:43:30;;;;;;;33.70;20.85;;;;;;;3.65;82.96;102493.47;5052504;28;20483;-39
2023/03/03 07:46:15;;;;;;;31.65;19.77;;;;;;;3.67;82.88;102492.19;5052553;28;20048;-39
2023/03/03 07:48:41;;;;;;;31.25;20.13;;;;;;;3.80;81.80;102507.69;5052441;28;20029;-38
2023/03/03 07:51:22;;;;;;;31.02;20.10;;;;;;;3.81;81.24;102503.09;5053463;28;20027;-38
2023/03/03 07:53:47;;;;;;;30.45;19.40;;;;;;;3.82;81.56;102502.03;5053384;28;20021;-38
2023/03/03 07:56:23;;;;;;;31.63;19.60;;;;;;;3.83;81.16;102515.47;5053309;28;20037;-38
2023/03/03 07:58:49;;;;;;;32.83;19.65;;;;;;;3.86;81.74;102516.94;5035101;28;20035;-39
2023/03/03 08:01:38;;;;;;;31.88;20.58;;;;;;;3.86;81.54;102516.94;5052868;28;20041;-38
2023/03/03 08:04:12;;;;;;;32.50;19.58;;;;;;;3.81;81.70;102517.59;5053269;28;20537;-38
2023/03/03 08:06:45;;;;;;;31.83;20.45;;;;;;;3.83;81.83;102512.75;5053253;28;20024;-38
2023/03/03 08:09:10;;;;;;;33.58;19.60;;;;;;;3.85;82.06;102518.00;5053180;28;20481;-39
2023/03/03 08:11:52;;;;;;;31.50;19.83;;;;;;;3.84;81.57;102517.16;5053108;28;20043;-38
2023/03/03 08:14:37;;;;;;;34.25;21.58;;;;;;;3.92;82.44;102527.00;5052984;28;20082;-38
2023/03/03 08:17:23;;;;;;;34.70;21.00;;;;;;;3.89;83.17;102524.72;5053102;28;20128;-38
2023/03/03 08:19:50;;;;;;;36.40;21.13;;;;;;;3.80;82.61;102521.38;5053071;28;20037;-39
2023/03/03 08:22:18;;;;;;;33.10;21.02;;;;;;;3.74;83.26;102525.84;5052911;28;20504;-38
2023/03/03 08:24:44;;;;;;;32.25;20.55;;;;;;;3.82;83.49;102532.97;5052880;28;20477;-39
2023/03/03 08:27:09;;;;;;;33.35;20.45;;;;;;;3.89;83.42;102532.94;5052832;28;20040;-38
2023/03/03 08:29:34;;;;;;;33.35;21.10;;;;;;;3.81;82.66;102520.34;5052707;28;20039;-38
2023/03/03 08:32:00;;;;;;;31.55;19.80;;;;;;;3.83;83.11;102537.38;5052770;28;20040;-39
2023/03/03 08:34:25;;;;;;;33.50;19.40;;;;;;;3.89;82.86;102546.63;5052601;28;20041;-38
2023/03/03 08:36:51;;;;;;;31.05;19.70;;;;;;;3.88;81.55;102537.56;5067144;28;20029;-39
2023/03/03 08:39:16;;;;;;;29.48;19.05;;;;;;;3.93;81.30;102538.81;5071478;28;20044;-39
2023/03/03 08:41:43;;;;;;;31.23;18.88;;;;;;;4.00;80.44;102548.69;5071379;28;20021;-39
2023/03/03 08:44:09;;;;;;;32.28;18.67;;;;;;;4.11;80.54;102549.03;5066883;28;20031;-40
2023/03/03 08:46:35;;;;;;;28.33;17.73;;;;;;;4.10;80.79;102556.41;5052544;28;20024;-38
2023/03/03 08:49:00;;;;;;;28.30;18.05;;;;;;;4.07;81.45;102551.34;5034642;28;20492;-38
2023/03/03 08:51:26;;;;;;;28.30;17.67;;;;;;;4.19;81.77;102560.56;5052576;28;20388;-39
2023/03/03 08:53:51;;;;;;;30.23;18.00;;;;;;;4.30;81.32;102556.25;5052161;28;20020;-38
2023/03/03 08:56:16;;;;;;;27.67;17.70;;;;;;;4.30;80.16;102561.72;5052408;28;20041;-38
2023/03/03 08:58:46;;;;;;;27.63;17.20;;;;;;;4.29;81.11;102560.09;5052420;28;20025;-38
2023/03/03 09:01:12;;;;;;;27.73;17.55;;;;;;;4.39;80.98;102562.31;5052110;28;20049;-39
2023/03/03 09:03:38;;;;;;;27.15;16.65;;;;;;;4.52;80.72;102570.44;5052369;28;20460;-38
2023/03/03 09:06:03;;;;;;;28.70;17.77;;;;;;;4.62;79.36;102560.88;5052250;28;20100;-39
2023/03/03 09:08:29;;;;;;;27.58;17.92;;;;;;;4.63;78.60;102563.41;5052331;28;20033;-38
2023/03/03 09:10:54;;;;;;;28.52;17.67;;;;;;;4.61;78.73;102565.50;5052159;28;20025;-38
2023/03/03 09:13:19;;;;;;;25.98;16.25;;;;;;;4.65;80.20;102561.28;5034292;28;20059;-38
2023/03/03 09:15:46;;;;;;;26.33;16.30;;;;;;;4.71;78.17;102559.53;5052055;28;20040;-38
2023/03/03 09:18:29;;;;;;;25.83;16.55;;;;;;;4.76;77.90;102554.22;5052361;28;20112;-38
2023/03/03 09:20:57;;;;;;;26.17;16.67;;;;;;;4.78;77.86;102568.53;5051978;28;20526;-39
2023/03/03 09:23:35;;;;;;;26.88;17.27;;;;;;;4.80;78.44;102569.16;5051915;28;20091;-39
2023/03/03 09:26:28;;;;;;;25.40;16.70;;;;;;;4.79;78.16;102570.22;5051623;28;20029;-38
2023/03/03 09:29:14;;;;;;;29.35;17.45;;;;;;;4.77;78.23;102574.25;5042403;28;20041;-39
2023/03/03 09:31:54;;;;;;;27.15;16.48;;;;;;;4.76;77.42;102556.94;5036720;28;20092;-39
2023/03/03 09:34:26;;;;;;;24.38;14.93;;;;;;;5.02;78.07;102568.72;5050777;28;20044;-38
2023/03/03 09:36:53;;;;;;;25.92;16.00;;;;;;;5.08;77.93;102573.31;5050916;28;20037;-39
2023/03/03 09:39:21;;;;;;;26.98;16.63;;;;;;;5.08;77.49;102566.97;5050730;28;20029;-39
2023/03/03 09:42:24;;;;;;;25.45;16.63;;;;;;;5.17;77.71;102576.59;5050592;28;20112;-39
2023/03/03 09:45:11;;;;;;;26.50;15.73;;;;;;;5.26;76.77;102586.22;5036999;28;20093;-39
2023/03/03 09:47:45;;;;;;;26.75;17.08;;;;;;;5.22;75.59;102586.88;5070534;28;20032;-39
2023/03/03 09:50:25;;;;;;;25.23;15.55;;;;;;;5.20;75.84;102576.16;5070351;28;20036;-39
2023/03/03 09:53:06;;;;;;;26.02;16.38;;;;;;;5.26;74.70;102579.91;5070383;28;20042;-38
2023/03/03 09:56:19;;;;;;;24.40;15.27;;;;;;;5.40;75.79;102581.41;5070456;28;20024;-38
2023/03/03 09:59:19;;;;;;;27.63;16.65;;;;;;;5.39;74.43;102571.50;5033723;28;20082;-40
2023/03/03 10:02:00;;;;;;;26.33;16.27;;;;;;;5.46;75.01;102585.16;5070497;28;20083;-38
2023/03/03 10:04:40;;;;;;;26.30;16.83;;;;;;;5.47;75.18;102573.09;5070143;28;20028;-39
2023/03/03 10:07:42;;;;;;;26.02;16.52;;;;;;;5.51;75.01;102585.31;5070205;28;20028;-39
2023/03/03 10:10:39;;;;;;;26.67;15.93;;;;;;;5.60;75.63;102578.44;5070140;28;20547;-39
2023/03/03 10:13:21;;;;;;;24.45;16.30;;;;;;;5.57;74.28;102578.91;5070028;28;20032;-39
2023/03/03 10:16:23;;;;;;;25.00;16.00;;;;;;;5.62;75.30;102583.72;5070092;28;20031;-43
2023/03/03 10:19:00;;;;;;;25.17;16.23;;;;;;;5.65;75.67;102591.50;5070075;28;20095;-38
2023/03/03 10:21:38;;;;;;;25.88;17.02;;;;;;;5.59;74.79;102596.00;5070401;28;20107;-39
2023/03/03 10:24:09;;;;;;;27.95;16.55;;;;;;;5.72;75.08;102589.50;5072838;28;20021;-39
2023/03/03 10:26:47;;;;;;;26.17;16.60;;;;;;;5.77;74.41;102584.13;5073503;28;20082;-38
2023/03/03 10:29:26;;;;;;;26.98;16.23;;;;;;;5.75;74.43;102572.56;5073605;28;20063;-39
2023/03/03 10:32:13;;;;;;;26.42;16.00;;;;;;;5.90;74.78;102587.78;5073504;28;20047;-39
2023/03/03 10:34:57;;;;;;;25.52;16.23;;;;;;;5.82;73.59;102583.44;5054030;28;20032;-39
2023/03/03 10:37:48;;;;;;;27.35;16.33;;;;;;;5.80;74.88;102593.00;5073453;28;20039;-41
2023/03/03 10:40:21;;;;;;;26.40;16.90;;;;;;;5.77;74.39;102584.13;5073190;28;20154;-39
2023/03/03 10:43:20;;;;;;;26.40;16.60;;;;;;;5.84;74.75;102592.28;5072737;28;20107;-39
2023/03/03 10:46:20;;;;;;;29.17;18.15;;;;;;;5.85;75.22;102583.00;5072858;28;20032;-39
2023/03/03 10:49:03;;;;;;;24.88;15.80;;;;;;;5.86;75.37;102576.44;5073145;28;20048;-39
2023/03/03 10:52:02;;;;;;;26.98;16.85;;;;;;;5.98;75.16;102583.91;5073228;28;20036;-39
2023/03/03 10:54:49;;;;;;;25.25;16.00;;;;;;;6.05;74.49;102585.50;5073114;28;20039;-39
2023/03/03 10:57:38;;;;;;;27.00;16.95;;;;;;;6.09;73.90;102588.63;5073006;28;20039;-39
2023/03/03 11:00:18;;;;;;;24.50;16.35;;;;;;;6.02;73.38;102585.13;5073012;28;20056;-39
2023/03/03 11:03:19;;;;;;;25.58;15.93;;;;;;;6.16;73.90;102586.63;5073112;28;20036;-39
2023/03/03 11:05:52;;;;;;;26.40;17.00;;;;;;;6.21;74.19;102580.44;5050845;28;20041;-39
2023/03/03 11:08:17;;;;;;;29.05;16.95;;;;;;;6.25;73.65;102584.38;5073130;28;20058;-38
2023/03/03 11:10:51;;;;;;;26.05;17.02;;;;;;;6.29;74.38;102584.72;5073275;28;20472;-39
2023/03/03 11:13:37;;;;;;;26.88;16.38;;;;;;;6.33;73.91;102583.22;5073040;28;20130;-40
2023/03/03 11:16:21;;;;;;;27.85;16.85;;;;;;;6.36;74.01;102580.00;5072838;28;20042;-39
2023/03/03 11:18:54;;;;;;;27.25;17.05;;;;;;;6.36;74.28;102591.00;5068426;28;20036;-39
2023/03/03 11:21:28;;;;;;;27.85;17.02;;;;;;;6.33;72.76;102575.78;5072904;28;20547;-39
2023/03/03 11:24:08;;;;;;;29.80;16.85;;;;;;;6.36;73.87;102578.06;5073103;28;20060;-38
2023/03/03 11:26:52;;;;;;;27.48;16.70;;;;;;;6.41;73.95;102571.88;5072702;28;20468;-39
2023/03/03 11:29:39;;;;;;;25.08;15.45;;;;;;;6.42;73.48;102569.97;5072560;28;20040;-40
2023/03/03 11:32:26;;;;;;;25.77;15.93;;;;;;;6.43;73.84;102563.38;5072339;28;20380;-39